Dades meteomassalio
Diari Summary for Gener 19, 2017 Units:  Metric    English   Both
« Previous Day
Next Day »
Diari Semanal Mensual Anual Personalitzat
  Maxima: Minima: Mijana:
Temperatura: -17.8 °C -20.2 °C -17.9 °C
Rosada: -17.8 °C -21.6 °C -20.1 °C
Humitat: Humidity % 65 % 76 %
Velocitat del vent: 0 km/h 0 km/h 4.3 km/h
Racha vent: 0 km/h - -
Vent:- - West
Pressio: 0 hPa 34682.8 hPa -
Pluja: 0 mm    
Historical Graphs
 
 
Tabular Data for Gener 19, 2017
Time Temperature Dew Point Pressure Wind Wind Speed Wind Gust Humidity Rainfall Rate (Hourly) solar Conditions
-17.8 °C -17.8 °C 0 hPa Calm     Humidity % 0 mm SolarRadiationWatts/m^2 W/m2 Conditions
00:02 -19 °C -21.1 °C 34784.4 hPa Calm     76 % 0 mm 0.0 W/m2 CLR
00:07 -19.2 °C -21.3 °C 34784.4 hPa Calm     76 % 0 mm 0.0 W/m2 CLR
00:12 -19.4 °C -21.3 °C 34784.4 hPa Calm     77 % 0 mm 0.0 W/m2 CLR
00:17 -19.5 °C -21.3 °C 34784.4 hPa Calm     78 % 0 mm 0.0 W/m2 CLR
00:22 -19.6 °C -21.3 °C 34784.4 hPa Calm     79 % 0 mm 0.0 W/m2 CLR
00:27 -19.6 °C -21.3 °C 34784.4 hPa SW 9 km/h 9 km/h 80 % 0 mm 0.0 W/m2 CLR
00:32 -19.6 °C -21.1 °C 34784.4 hPa SW 11.9 km/h 11.9 km/h 81 % 0 mm 0.0 W/m2 CLR
00:37 -19.4 °C -20.9 °C 34784.4 hPa SW 9 km/h 9 km/h 81 % 0 mm 0.0 W/m2 CLR
00:42 -19.3 °C -21 °C 34784.4 hPa SSW 10.3 km/h 10.3 km/h 80 % 0 mm 0.0 W/m2 CLR
00:47 -19.3 °C -21 °C 34784.4 hPa SW 11.9 km/h 11.9 km/h 80 % 0 mm 0.0 W/m2 CLR
00:52 -19.3 °C -21 °C 34784.4 hPa SW 15 km/h 15 km/h 80 % 0 mm 0.0 W/m2 CLR
00:57 -19.4 °C -21 °C 34784.4 hPa SW 15 km/h 15 km/h 80 % 0 mm 0.0 W/m2 CLR
01:02 -19.3 °C -21 °C 34784.4 hPa WSW 10.3 km/h 10.3 km/h 80 % 0 mm 0.0 W/m2 CLR
01:07 -19.3 °C -20.9 °C 34784.4 hPa SW 10.3 km/h 10.3 km/h 80 % 0 mm 0.0 W/m2 CLR
01:12 -19.3 °C -20.9 °C 34784.4 hPa SW 10.3 km/h 10.3 km/h 80 % 0 mm 0.0 W/m2 CLR
01:17 -19.2 °C -20.9 °C 34784.4 hPa WSW 12.9 km/h 12.9 km/h 80 % 0 mm 0.0 W/m2 CLR
01:22 -19.2 °C -20.9 °C 34784.4 hPa Calm     79 % 0 mm 0.0 W/m2 CLR
01:27 -19.4 °C -21.2 °C 34784.4 hPa Calm     78 % 0 mm 0.0 W/m2 CLR
01:32 -19.5 °C -21.2 °C 34784.4 hPa Calm     79 % 0 mm 0.0 W/m2 CLR
01:37 -19.7 °C -21.4 °C 34784.4 hPa Calm     79 % 0 mm 0.0 W/m2 CLR
01:42 -19.8 °C -21.4 °C 34784.4 hPa Calm     80 % 0 mm 0.0 W/m2 CLR
01:47 -19.8 °C -21.4 °C 34784.4 hPa Calm     81 % 0 mm 0.0 W/m2 CLR
01:52 -19.9 °C -21.3 °C 34784.4 hPa Calm     82 % 0 mm 0.0 W/m2 CLR
01:57 -19.9 °C -21.4 °C 34774.2 hPa Calm     82 % 0 mm 0.0 W/m2 CLR
02:02 -19.9 °C -21.4 °C 34774.2 hPa Calm     82 % 0 mm 0.0 W/m2 CLR
02:07 -20 °C -21.3 °C 34784.4 hPa Calm     83 % 0 mm 0.0 W/m2 CLR
02:12 -20.1 °C -21.4 °C 34784.4 hPa Calm     83 % 0 mm 0.0 W/m2 CLR
02:17 -20.1 °C -21.6 °C 34784.4 hPa Calm     82 % 0 mm 0.0 W/m2 CLR
02:22 -20.2 °C -21.5 °C 34774.2 hPa Calm     83 % 0 mm 0.0 W/m2 CLR
02:27 -20.1 °C -21.4 °C 34784.4 hPa Calm     84 % 0 mm 0.0 W/m2 CLR
02:32 -20.1 °C -21.4 °C 34784.4 hPa South 6 km/h 6 km/h 84 % 0 mm 0.0 W/m2 CLR
02:37 -20.1 °C -21.3 °C 34784.4 hPa Calm     84 % 0 mm 0.0 W/m2 CLR
02:42 -20.2 °C -21.5 °C 34784.4 hPa Calm     83 % 0 mm 0.0 W/m2 CLR
02:47 -20.2 °C -21.5 °C 34784.4 hPa Calm     84 % 0 mm 0.0 W/m2 CLR
02:52 -20.2 °C -21.4 °C 34784.4 hPa Calm     85 % 0 mm 0.0 W/m2 CLR
02:57 -20.1 °C -21.2 °C 34784.4 hPa Calm     86 % 0 mm 0.0 W/m2 CLR
03:02 -19.9 °C -21.1 °C 34784.4 hPa Calm     86 % 0 mm 0.0 W/m2 CLR
03:07 -19.8 °C -20.9 °C 34797.9 hPa SW 7.7 km/h   86 % 0 mm 0.0 W/m2 CLR
03:12 -19.7 °C -20.8 °C 34797.9 hPa SW 9 km/h 9 km/h 86 % 0 mm 0.0 W/m2 CLR
03:17 -19.5 °C -20.7 °C 34784.4 hPa WSW 12.9 km/h 12.9 km/h 85 % 0 mm 0.0 W/m2 CLR
03:22 -19.2 °C -20.4 °C 34784.4 hPa WSW 9 km/h 9 km/h 84 % 0 mm 0.0 W/m2 CLR
03:27 -19 °C -20.4 °C 34784.4 hPa WSW 15 km/h 15 km/h 82 % 0 mm 0.0 W/m2 CLR
03:32 -18.8 °C -20.4 °C 34784.4 hPa WSW 9 km/h 9 km/h 81 % 0 mm 0.0 W/m2 CLR
03:37 -18.8 °C -20.5 °C 34784.4 hPa Calm     80 % 0 mm 0.0 W/m2 CLR
03:42 -18.8 °C -20.5 °C 34774.2 hPa WSW 5.1 km/h 5.1 km/h 80 % 0 mm 0.0 W/m2 CLR
03:47 -19 °C -20.7 °C 34784.4 hPa Calm     80 % 0 mm 0.0 W/m2 CLR
03:52 -19 °C -20.7 °C 34784.4 hPa Calm     80 % 0 mm 0.0 W/m2 CLR
03:57 -19 °C -20.6 °C 34784.4 hPa Calm     81 % 0 mm 0.0 W/m2 CLR
04:02 -18.9 °C -20.4 °C 34784.4 hPa Calm     81 % 0 mm 0.0 W/m2 CLR
04:07 -18.8 °C -20.5 °C 34784.4 hPa Calm   0.8 km/h 80 % 0 mm 0.0 W/m2 CLR
04:12 -18.9 °C -20.6 °C 34784.4 hPa Calm     80 % 0 mm 0.0 W/m2 CLR
04:17 -18.9 °C -20.6 °C 34774.2 hPa Calm     80 % 0 mm 0.0 W/m2 CLR
04:22 -18.9 °C -20.5 °C 34774.2 hPa SSE 9 km/h 9 km/h 81 % 0 mm 0.0 W/m2 CLR
04:27 -18.8 °C -20.4 °C 34774.2 hPa West 9 km/h 9 km/h 81 % 0 mm 0.0 W/m2 CLR
04:32 -18.7 °C -20.4 °C 34784.4 hPa WSW 9 km/h 9 km/h 80 % 0 mm 0.0 W/m2 CLR
04:37 -18.7 °C -20.4 °C 34784.4 hPa SW 9 km/h 9 km/h 79 % 0 mm 0.0 W/m2 CLR
04:43 -18.7 °C -20.5 °C 34774.2 hPa SW 6 km/h 6 km/h 79 % 0 mm 0.0 W/m2 CLR
04:48 -18.8 °C -20.6 °C 34774.2 hPa SW 9 km/h 9 km/h 79 % 0 mm 0.0 W/m2 CLR
04:53 -18.8 °C -20.5 °C 34784.4 hPa WSW 9 km/h 9 km/h 80 % 0 mm 0.0 W/m2 CLR
04:58 -18.8 °C -20.5 °C 34784.4 hPa SW 9 km/h 9 km/h 80 % 0 mm 0.0 W/m2 CLR
05:03 -18.8 °C -20.5 °C 34784.4 hPa SW 9 km/h 9 km/h 80 % 0 mm 0.0 W/m2 CLR
05:08 -18.9 °C -20.6 °C 34774.2 hPa SW 6 km/h 6 km/h 80 % 0 mm 0.0 W/m2 CLR
05:13 -18.9 °C -20.6 °C 34784.4 hPa Calm     80 % 0 mm 0.0 W/m2 CLR
05:18 -18.9 °C -20.6 °C 34784.4 hPa Calm     80 % 0 mm 0.0 W/m2 CLR
05:23 -18.9 °C -20.5 °C 34774.2 hPa SW 6 km/h 6 km/h 81 % 0 mm 0.0 W/m2 CLR
05:28 -18.9 °C -20.6 °C 34774.2 hPa Calm     80 % 0 mm 0.0 W/m2 CLR
05:33 -19 °C -20.7 °C 34774.2 hPa Calm     80 % 0 mm 0.0 W/m2 CLR
05:38 -19 °C -20.6 °C 34774.2 hPa WSW 9 km/h 9 km/h 81 % 0 mm 0.0 W/m2 CLR
05:43 -18.9 °C -20.5 °C 34774.2 hPa West 11.9 km/h 11.9 km/h 81 % 0 mm 0.0 W/m2 CLR
05:48 -18.9 °C -20.6 °C 34774.2 hPa West 9 km/h 9 km/h 80 % 0 mm 0.0 W/m2 CLR
05:53 -18.9 °C -20.6 °C 34784.4 hPa West 6 km/h 6 km/h 80 % 0 mm 0.0 W/m2 CLR
05:58 -18.9 °C -20.6 °C 34784.4 hPa Calm     80 % 0 mm 0.0 W/m2 CLR
06:03 -19.1 °C -20.7 °C 34784.4 hPa West 6 km/h 6 km/h 80 % 0 mm 0.0 W/m2 CLR
06:08 -19.1 °C -20.7 °C 34774.2 hPa West 11.9 km/h 11.9 km/h 81 % 0 mm 0.0 W/m2 CLR
06:13 -18.9 °C -20.5 °C 34774.2 hPa West 9 km/h 9 km/h 81 % 0 mm 0.0 W/m2 CLR
06:18 -18.9 °C -20.5 °C 34784.4 hPa Calm     81 % 0 mm 0.0 W/m2 CLR
06:23 -19 °C -20.7 °C 34784.4 hPa Calm     80 % 0 mm 0.0 W/m2 CLR
06:28 -19.1 °C -20.7 °C 34784.4 hPa WSW 6 km/h 6 km/h 81 % 0 mm 0.0 W/m2 CLR
06:33 -19.2 °C -20.7 °C 34784.4 hPa Calm     82 % 0 mm 0.0 W/m2 CLR
06:38 -19.2 °C -20.7 °C 34784.4 hPa Calm     82 % 0 mm 0.0 W/m2 CLR
06:43 -19.3 °C -20.7 °C 34784.4 hPa Calm     82 % 0 mm 0.0 W/m2 CLR
06:48 -19.3 °C -20.7 °C 34784.4 hPa Calm     83 % 0 mm 0.0 W/m2 CLR
06:53 -19.3 °C -20.7 °C 34784.4 hPa Calm     83 % 0 mm 0.0 W/m2 CLR
06:58 -19.3 °C -20.7 °C 34784.4 hPa SSW 10.3 km/h 10.3 km/h 83 % 0 mm 0.0 W/m2 CLR
07:03 -19.4 °C -20.8 °C 34784.4 hPa SW 9 km/h 9 km/h 83 % 0 mm 0.0 W/m2 CLR
07:08 -19.4 °C -20.7 °C 34784.4 hPa WSW 9 km/h 9 km/h 84 % 0 mm 0.0 W/m2 CLR
07:13 -19.5 °C -20.8 °C 34784.4 hPa WSW 11.9 km/h 11.9 km/h 84 % 0 mm 0.0 W/m2 CLR
07:18 -19.3 °C -20.6 °C 34784.4 hPa West 9 km/h 9 km/h 84 % 0 mm 0.0 W/m2 CLR
07:23 -19.3 °C -20.7 °C 34784.4 hPa Calm     83 % 0 mm 0.0 W/m2 CLR
07:28 -19.4 °C -20.8 °C 34784.4 hPa WSW 9 km/h 9 km/h 83 % 0 mm 0.0 W/m2 CLR
07:33 -19.4 °C -20.8 °C 34784.4 hPa SW 9 km/h 9 km/h 83 % 0 mm 0.0 W/m2 CLR
07:38 -19.5 °C -20.9 °C 34784.4 hPa SSW 9 km/h 9 km/h 83 % 0 mm 0.0 W/m2 CLR
07:43 -19.6 °C -20.9 °C 34797.9 hPa Calm     83 % 0 mm 0.0 W/m2 CLR
07:48 -19.7 °C -20.9 °C 34797.9 hPa Calm     84 % 0 mm 0.0 W/m2 CLR
07:53 -19.7 °C -21 °C 34797.9 hPa Calm     84 % 0 mm 0.0 W/m2 CLR
07:58 -19.8 °C -20.9 °C 34797.9 hPa Calm     85 % 0 mm 0.0 W/m2 CLR
08:03 -19.8 °C -21 °C 34797.9 hPa Calm     85 % 0 mm 0.0 W/m2 CLR
08:08 -19.8 °C -21.1 °C 34797.9 hPa Calm     85 % 0 mm 0.0 W/m2 CLR
08:13 -19.9 °C -21.1 °C 34797.9 hPa Calm     85 % 0 mm 0.0 W/m2 CLR
08:18 -19.9 °C -21.2 °C 34797.9 hPa Calm     85 % 0 mm 0.0 W/m2 CLR
08:23 -20.1 °C -21.3 °C 34797.9 hPa Calm     85 % 0 mm 0.0 W/m2 OVC
08:28 -20.1 °C -21.2 °C 34797.9 hPa Calm     86 % 0 mm 7.0 W/m2 OVC
08:33 -20.1 °C -21.2 °C 34797.9 hPa Calm     86 % 0 mm 11.0 W/m2 OVC
08:38 -20.2 °C -21.3 °C 34797.9 hPa Calm     86 % 0 mm 14.0 W/m2 BKN
08:43 -20.1 °C -21.2 °C 34797.9 hPa Calm     87 % 0 mm 19.0 W/m2 BKN
08:48 -20.1 °C -21.2 °C 34797.9 hPa SW 2.6 km/h 2.6 km/h 87 % 0 mm 25.0 W/m2 BKN
08:53 -20.2 °C -21.2 °C 34808.1 hPa SW 6 km/h 6 km/h 87 % 0 mm 28.0 W/m2 BKN
08:58 -20.2 °C -21.2 °C 34797.9 hPa SW 6 km/h 6 km/h 87 % 0 mm 33.0 W/m2 BKN
09:03 -20.2 °C -21.2 °C 34797.9 hPa Calm     87 % 0 mm 40.0 W/m2 BKN
09:08 -20.1 °C -21.1 °C 34797.9 hPa Calm     88 % 0 mm 47.0 W/m2 BKN
09:13 -20.1 °C -21.1 °C 34808.1 hPa Calm     87 % 0 mm 51.0 W/m2 BKN
09:18 -20.1 °C -21.1 °C 34808.1 hPa Calm     87 % 0 mm 54.0 W/m2 BKN
09:23 -19.9 °C -21 °C 34808.1 hPa Calm     87 % 0 mm 62.0 W/m2 BKN
09:28 -19.9 °C -20.9 °C 34808.1 hPa Calm     87 % 0 mm 79.0 W/m2 BKN
09:33 -19.9 °C -20.9 °C 34797.9 hPa Calm     87 % 0 mm 114.0 W/m2 BKN
09:38 -19.8 °C -20.8 °C 34797.9 hPa Calm     87 % 0 mm 137.0 W/m2 BKN
09:43 -19.6 °C -20.6 °C 34797.9 hPa Calm     87 % 0 mm 163.0 W/m2 BKN
09:48 -19.4 °C -20.5 °C 34797.9 hPa Calm     86 % 0 mm 183.0 W/m2 BKN
09:53 -19.2 °C -20.3 °C 34808.1 hPa Calm     86 % 0 mm 178.0 W/m2 BKN
09:58 -19 °C -20.2 °C 34808.1 hPa Calm     85 % 0 mm 181.0 W/m2 SCT
10:03 -18.8 °C -20.1 °C 34808.1 hPa Calm     84 % 0 mm 225.0 W/m2 BKN
10:08 -18.5 °C -19.8 °C 34797.9 hPa Calm     84 % 0 mm 285.0 W/m2 SCT
10:13 -18.2 °C -19.6 °C 34797.9 hPa Calm     82 % 0 mm 302.0 W/m2 SCT
10:18 -17.9 °C -19.5 °C 34797.9 hPa Calm     81 % 0 mm 281.0 W/m2 SCT
10:23 -17.6 °C -19.4 °C 34797.9 hPa West 10.3 km/h 10.3 km/h 79 % 0 mm 271.0 W/m2 SCT
10:29 -17.4 °C -19.4 °C 34784.4 hPa WNW 15.6 km/h 15.6 km/h 77 % 0 mm 271.0 W/m2 SCT
10:34 -17.3 °C -19.4 °C 34784.4 hPa NW 15.6 km/h 15.6 km/h 76 % 0 mm 288.0 W/m2 SCT
10:39 -17.3 °C -19.4 °C 34784.4 hPa NW 18.2 km/h 18.2 km/h 75 % 0 mm 294.0 W/m2 SCT
10:44 -17.2 °C -19.5 °C 34784.4 hPa NW 18.2 km/h 18.2 km/h 74 % 0 mm 290.0 W/m2 SCT
10:49 -17.2 °C -19.6 °C 34784.4 hPa NW 23.8 km/h 23.8 km/h 73 % 0 mm 288.0 W/m2 SCT
10:54 -17.3 °C -19.6 °C 34784.4 hPa NW 26.9 km/h 26.9 km/h 73 % 0 mm 295.0 W/m2 SCT
10:59 -17.2 °C -19.6 °C 34784.4 hPa NW 20.9 km/h 20.9 km/h 73 % 0 mm 325.0 W/m2 SCT
11:04 -17.2 °C -19.6 °C 34784.4 hPa NW 17.9 km/h 17.9 km/h 73 % 0 mm 322.0 W/m2 SCT
11:09 -17.1 °C -19.5 °C 34784.4 hPa NW 17.9 km/h 17.9 km/h 73 % 0 mm 341.0 W/m2 SCT
11:14 -17.1 °C -19.6 °C 34784.4 hPa NW 20.9 km/h 20.9 km/h 72 % 0 mm 353.0 W/m2 SCT
11:19 -17.1 °C -19.6 °C 34784.4 hPa NW 15 km/h 15 km/h 72 % 0 mm 336.0 W/m2 SCT
11:24 -17 °C -19.6 °C 34784.4 hPa NW 20.9 km/h 20.9 km/h 71 % 0 mm 364.0 W/m2 SCT
11:29 -17.1 °C -19.6 °C 34784.4 hPa NW 9 km/h   72 % 0 mm 369.0 W/m2 SCT
11:34 -16.9 °C -19.4 °C 34784.4 hPa NW 17.9 km/h 18.7 km/h 72 % 0 mm 355.0 W/m2 SCT
11:39 -16.9 °C -19.6 °C 34784.4 hPa NW 20.9 km/h 20.9 km/h 71 % 0 mm 364.0 W/m2 SCT
11:44 -16.9 °C -19.6 °C 34784.4 hPa WNW 15 km/h 15 km/h 70 % 0 mm 371.0 W/m2 SCT
11:49 -16.8 °C -19.5 °C 34774.2 hPa WNW 15 km/h 15 km/h 70 % 0 mm 374.0 W/m2 SCT
11:54 -16.7 °C -19.4 °C 34760.7 hPa NNW 18.2 km/h 18.2 km/h 70 % 0 mm 394.0 W/m2 SCT
11:59 -16.7 °C -19.5 °C 34760.7 hPa NW 26.9 km/h 26.9 km/h 69 % 0 mm 429.0 W/m2 FEW
12:04 -16.6 °C -19.6 °C 34760.7 hPa NW 23.8 km/h 23.8 km/h 68 % 0 mm 431.0 W/m2 FEW
12:09 -16.6 °C -19.6 °C 34760.7 hPa NW 23.8 km/h 23.8 km/h 68 % 0 mm 179.0 W/m2 SCT
12:14 -16.6 °C -19.6 °C 34750.5 hPa NW 15.6 km/h 15.6 km/h 68 % 0 mm 517.0 W/m2 SCT
12:20 -16.5 °C -19.4 °C 34750.5 hPa WNW 26.9 km/h 26.9 km/h 68 % 0 mm 471.0 W/m2 SCT
12:25 -16.4 °C -19.5 °C 34750.5 hPa NW 20.9 km/h 20.9 km/h 67 % 0 mm 392.0 W/m2 CLR
12:30 -16.5 °C -19.6 °C 34740.4 hPa NW 15.6 km/h 15.6 km/h 67 % 0 mm 165.0 W/m2 FEW
12:35 -16.6 °C -19.7 °C 34740.4 hPa NW 5.1 km/h 5.1 km/h 67 % 0 mm 146.0 W/m2 BKN
12:40 -16.6 °C -19.6 °C 34740.4 hPa NW 11.9 km/h 11.9 km/h 68 % 0 mm 156.0 W/m2 BKN
12:45 -16.6 °C -19.5 °C 34740.4 hPa NW 15 km/h 15 km/h 68 % 0 mm 216.0 W/m2 BKN
12:50 -16.6 °C -19.6 °C 34740.4 hPa NW 9 km/h 9 km/h 67 % 0 mm 163.0 W/m2 BKN
12:55 -16.6 °C -19.6 °C 34740.4 hPa NNW 15 km/h 15 km/h 68 % 0 mm 123.0 W/m2 BKN
13:00 -16.7 °C -19.6 °C 34740.4 hPa Calm     69 % 0 mm 104.0 W/m2 BKN
13:05 -16.7 °C -19.6 °C 34740.4 hPa North 15 km/h 15 km/h 69 % 0 mm 77.0 W/m2 BKN
13:10 -16.7 °C -19.4 °C 34740.4 hPa North 9 km/h 9 km/h 70 % 0 mm 63.0 W/m2 BKN
13:15 -16.8 °C -19.5 °C 34740.4 hPa North 9 km/h 9 km/h 70 % 0 mm 74.0 W/m2 BKN
13:20 -16.8 °C -19.5 °C 34740.4 hPa North 9 km/h 9 km/h 70 % 0 mm 95.0 W/m2 BKN
13:25 -16.8 °C -19.5 °C 34726.8 hPa North 9 km/h 9 km/h 70 % 0 mm 72.0 W/m2 BKN
13:30 -16.8 °C -19.5 °C 34726.8 hPa NW 7.7 km/h 7.7 km/h 70 % 0 mm 53.0 W/m2 BKN
13:35 -16.8 °C -19.5 °C 34726.8 hPa NNW 11.9 km/h 11.9 km/h 70 % 0 mm 65.0 W/m2 BKN
13:40 -16.8 °C -19.6 °C 34726.8 hPa Calm     70 % 0 mm 111.0 W/m2 BKN
13:45 -16.8 °C -19.4 °C 34726.8 hPa NNW 11.9 km/h 11.9 km/h 71 % 0 mm 69.0 W/m2 BKN
13:50 -16.8 °C -19.5 °C 34716.7 hPa Calm     71 % 0 mm 46.0 W/m2 BKN
13:55 -16.8 °C -19.5 °C 34716.7 hPa NW 9 km/h 9 km/h 71 % 0 mm 35.0 W/m2 BKN
14:00 -16.9 °C -19.5 °C 34716.7 hPa Calm     71 % 0 mm 33.0 W/m2 BKN
14:05 -16.9 °C -19.4 °C 34716.7 hPa Calm     72 % 0 mm 56.0 W/m2 BKN
14:10 -16.9 °C -19.5 °C 34716.7 hPa Calm     71 % 0 mm 65.0 W/m2 BKN
14:15 -16.9 °C -19.4 °C 34716.7 hPa NNW 11.9 km/h 11.9 km/h 72 % 0 mm 46.0 W/m2 BKN
14:20 -16.9 °C -19.4 °C 34716.7 hPa NW 9 km/h 9 km/h 72 % 0 mm 46.0 W/m2 BKN
14:25 -16.9 °C -19.4 °C 34703.1 hPa NW 9 km/h 9 km/h 72 % 0 mm 44.0 W/m2 BKN
14:30 -17 °C -19.5 °C 34703.1 hPa NW 11.9 km/h 11.9 km/h 72 % 0 mm 54.0 W/m2 BKN
14:35 -16.9 °C -19.3 °C 34703.1 hPa NNW 12.9 km/h 12.9 km/h 73 % 0 mm 81.0 W/m2 BKN
14:40 -16.9 °C -19.4 °C 34703.1 hPa NNW 9 km/h 9 km/h 72 % 0 mm 74.0 W/m2 BKN
14:45 -16.9 °C -19.4 °C 34703.1 hPa Calm     72 % 0 mm 60.0 W/m2 BKN
14:50 -16.9 °C -19.4 °C 34693 hPa NW 9 km/h 9 km/h 72 % 0 mm 77.0 W/m2 BKN
14:55 -16.8 °C -19.3 °C 34693 hPa NW 9 km/h 9 km/h 72 % 0 mm 65.0 W/m2 BKN
15:00 -16.8 °C -19.3 °C 34693 hPa NW 6 km/h   72 % 0 mm 77.0 W/m2 BKN
15:05 -16.8 °C -19.3 °C 34693 hPa Calm     72 % 0 mm 90.0 W/m2 BKN
15:10 -16.8 °C -19.3 °C 34693 hPa Calm     72 % 0 mm 113.0 W/m2 BKN
15:15 -16.8 °C -19.3 °C 34693 hPa Calm     72 % 0 mm 146.0 W/m2 BKN
15:20 -16.8 °C -19.4 °C 34693 hPa Calm     71 % 0 mm 142.0 W/m2 SCT
15:25 -16.7 °C -19.3 °C 34693 hPa NW 6 km/h 6 km/h 71 % 0 mm 105.0 W/m2 SCT
15:30 -16.7 °C -19.4 °C 34693 hPa WNW 9 km/h 9 km/h 70 % 0 mm 84.0 W/m2 BKN
15:35 -16.7 °C -19.4 °C 34693 hPa WNW 9 km/h 9 km/h 70 % 0 mm 65.0 W/m2 BKN
15:40 -16.7 °C -19.4 °C 34682.8 hPa Calm     70 % 0 mm 70.0 W/m2 BKN
15:45 -16.7 °C -19.6 °C 34682.8 hPa WNW 3.1 km/h   69 % 0 mm 91.0 W/m2 BKN
15:50 -16.7 °C -19.6 °C 34693 hPa WNW 7.7 km/h 7.7 km/h 68 % 0 mm 63.0 W/m2 BKN
15:55 -16.6 °C -19.7 °C 34693 hPa WNW 12.9 km/h 12.9 km/h 67 % 0 mm 88.0 W/m2 BKN
16:00 -16.6 °C -19.7 °C 34693 hPa NW 11.9 km/h 11.9 km/h 67 % 0 mm 76.0 W/m2 BKN
16:05 -16.6 °C -19.7 °C 34693 hPa NW 9 km/h 9 km/h 67 % 0 mm 76.0 W/m2 SCT
16:10 -16.6 °C -19.7 °C 34693 hPa Calm     67 % 0 mm 74.0 W/m2 SCT
16:15 -16.6 °C -19.8 °C 34693 hPa Calm     66 % 0 mm 60.0 W/m2 SCT
16:20 -16.6 °C -19.8 °C 34682.8 hPa Calm     66 % 0 mm 65.0 W/m2 SCT
16:25 -16.6 °C -19.7 °C 34682.8 hPa NW 10.3 km/h 10.3 km/h 67 % 0 mm 62.0 W/m2 FEW
16:30 -16.6 °C -19.8 °C 34682.8 hPa NW 9 km/h 9 km/h 66 % 0 mm 51.0 W/m2 CLR
16:35 -16.6 °C -19.8 °C 34682.8 hPa Calm     66 % 0 mm 39.0 W/m2 CLR
16:41 -16.6 °C -19.8 °C 34682.8 hPa Calm     66 % 0 mm 40.0 W/m2 CLR
16:51 -16.6 °C -19.9 °C 34682.8 hPa Calm     65 % 0 mm 39.0 W/m2 SCT
16:56 -16.6 °C -19.8 °C 34682.8 hPa Calm     66 % 0 mm 33.0 W/m2 OVC
17:01 -16.6 °C -19.9 °C 34682.8 hPa Calm     65 % 0 mm 26.0 W/m2 OVC
17:06 -16.6 °C -19.8 °C 34682.8 hPa Calm     66 % 0 mm 18.0 W/m2 OVC
17:11 -16.6 °C -19.8 °C 34682.8 hPa Calm     66 % 0 mm 26.0 W/m2 OVC
17:16 -16.6 °C -19.9 °C 34682.8 hPa Calm     65 % 0 mm 23.0 W/m2 OVC
17:21 -16.6 °C -19.8 °C 34682.8 hPa Calm     66 % 0 mm 19.0 W/m2 OVC
17:26 -16.6 °C -19.8 °C 34682.8 hPa Calm     66 % 0 mm 21.0 W/m2 OVC
17:31 -16.6 °C -19.8 °C 34682.8 hPa Calm     66 % 0 mm 21.0 W/m2 OVC
17:36 -16.6 °C -19.7 °C 34682.8 hPa Calm     67 % 0 mm 12.0 W/m2 OVC
17:41 -16.6 °C -19.7 °C 34682.8 hPa Calm     67 % 0 mm 9.0 W/m2 OVC
17:46 -16.7 °C -19.8 °C 34682.8 hPa Calm     66 % 0 mm 5.0 W/m2 OVC
17:51 -16.7 °C -19.7 °C 34693 hPa Calm     67 % 0 mm 0.0 W/m2 OVC
17:56 -16.7 °C -19.7 °C 34682.8 hPa Calm     67 % 0 mm 0.0 W/m2 OVC
18:01 -16.7 °C -19.8 °C 34682.8 hPa Calm     67 % 0 mm 0.0 W/m2 OVC
18:06 -16.7 °C -19.8 °C 34693 hPa Calm     67 % 0 mm 0.0 W/m2 CLR
18:11 -16.7 °C -19.8 °C 34682.8 hPa Calm     67 % 0 mm 0.0 W/m2 CLR
18:16 -16.7 °C -19.8 °C 34693 hPa Calm     67 % 0 mm 0.0 W/m2 CLR
18:21 -16.8 °C -19.7 °C 34693 hPa Calm     68 % 0 mm 0.0 W/m2 CLR
18:26 -16.8 °C -19.7 °C 34693 hPa Calm     68 % 0 mm 0.0 W/m2 CLR
18:31 -16.8 °C -19.8 °C 34693 hPa Calm     68 % 0 mm 0.0 W/m2 CLR
18:36 -16.8 °C -19.8 °C 34693 hPa Calm     68 % 0 mm 0.0 W/m2 CLR
18:41 -16.8 °C -19.8 °C 34693 hPa Calm     68 % 0 mm 0.0 W/m2 CLR
18:46 -16.8 °C -19.7 °C 34693 hPa Calm     69 % 0 mm 0.0 W/m2 CLR
18:51 -16.8 °C -19.8 °C 34693 hPa Calm     68 % 0 mm 0.0 W/m2 CLR
18:56 -16.8 °C -19.8 °C 34693 hPa Calm     68 % 0 mm 0.0 W/m2 CLR
19:01 -16.8 °C -19.8 °C 34693 hPa Calm     68 % 0 mm 0.0 W/m2 CLR
19:06 -16.8 °C -19.8 °C 34693 hPa Calm     68 % 0 mm 0.0 W/m2 CLR
19:11 -16.8 °C -19.8 °C 34693 hPa Calm     68 % 0 mm 0.0 W/m2 CLR
19:16 -16.9 °C -19.7 °C 34693 hPa Calm     69 % 0 mm 0.0 W/m2 CLR
19:21 -16.9 °C -19.7 °C 34693 hPa Calm     69 % 0 mm 0.0 W/m2 CLR
19:26 -16.9 °C -19.7 °C 34693 hPa Calm     69 % 0 mm 0.0 W/m2 CLR
19:31 -16.9 °C -19.8 °C 34693 hPa Calm     69 % 0 mm 0.0 W/m2 CLR
19:36 -16.9 °C -19.7 °C 34693 hPa Calm     70 % 0 mm 0.0 W/m2 CLR
19:41 -17 °C -19.6 °C 34693 hPa Calm     71 % 0 mm 0.0 W/m2 CLR
19:46 -17.1 °C -19.6 °C 34693 hPa Calm     72 % 0 mm 0.0 W/m2 CLR
19:51 -17.1 °C -19.6 °C 34693 hPa Calm     72 % 0 mm 0.0 W/m2 CLR
19:56 -17.1 °C -19.6 °C 34693 hPa Calm     72 % 0 mm 0.0 W/m2 CLR
20:01 -17.1 °C -19.6 °C 34693 hPa Calm     72 % 0 mm 0.0 W/m2 CLR
20:06 -17.1 °C -19.6 °C 34693 hPa Calm     71 % 0 mm 0.0 W/m2 CLR
20:11 -17.1 °C -19.6 °C 34693 hPa Calm     71 % 0 mm 0.0 W/m2 CLR
20:16 -17.1 °C -19.6 °C 34693 hPa Calm     72 % 0 mm 0.0 W/m2 CLR
20:21 -17.1 °C -19.6 °C 34693 hPa Calm     72 % 0 mm 0.0 W/m2 CLR
20:26 -17.1 °C -19.6 °C 34693 hPa Calm     72 % 0 mm 0.0 W/m2 CLR
20:31 -17.1 °C -19.6 °C 34693 hPa Calm     72 % 0 mm 0.0 W/m2 CLR
20:36 -17.1 °C -19.6 °C 34693 hPa Calm     72 % 0 mm 0.0 W/m2 CLR
20:41 -17.1 °C -19.6 °C 34693 hPa Calm     72 % 0 mm 0.0 W/m2 CLR
20:46 -17.1 °C -19.5 °C 34693 hPa Calm     73 % 0 mm 0.0 W/m2 CLR
20:52 -17.1 °C -19.5 °C 34693 hPa Calm     73 % 0 mm 0.0 W/m2 CLR
20:57 -17.1 °C -19.5 °C 34693 hPa Calm     73 % 0 mm 0.0 W/m2 CLR
21:02 -17.1 °C -19.5 °C 34693 hPa Calm     73 % 0 mm 0.0 W/m2 CLR
21:07 -17.1 °C -19.5 °C 34703.1 hPa Calm     73 % 0 mm 0.0 W/m2 CLR
21:12 -17.1 °C -19.3 °C 34703.1 hPa Calm     74 % 0 mm 0.0 W/m2 CLR
21:17 -17.1 °C -19.3 °C 34693 hPa Calm     74 % 0 mm 0.0 W/m2 CLR
21:22 -17.1 °C -19.3 °C 34693 hPa Calm     74 % 0 mm 0.0 W/m2 CLR
21:27 -17.1 °C -19.3 °C 34693 hPa Calm     74 % 0 mm 0.0 W/m2 CLR
21:32 -17.1 °C -19.3 °C 34693 hPa Calm     74 % 0 mm 0.0 W/m2 CLR
21:37 -17.1 °C -19.3 °C 34693 hPa Calm     74 % 0 mm 0.0 W/m2 CLR
21:42 -17 °C -19.3 °C 34693 hPa Calm     74 % 0 mm 0.0 W/m2 CLR
21:47 -17 °C -19.3 °C 34693 hPa Calm     74 % 0 mm 0.0 W/m2 CLR
21:52 -17 °C -19.3 °C 34693 hPa Calm     74 % 0 mm 0.0 W/m2 CLR
21:57 -16.9 °C -19.2 °C 34693 hPa Calm     74 % 0 mm 0.0 W/m2 CLR
22:02 -16.9 °C -19.2 °C 34693 hPa Calm     74 % 0 mm 0.0 W/m2 CLR
22:07 -16.9 °C -19.2 °C 34693 hPa Calm     74 % 0 mm 0.0 W/m2 CLR
22:12 -16.9 °C -19.2 °C 34693 hPa Calm     74 % 0 mm 0.0 W/m2 CLR
22:17 -16.9 °C -19.2 °C 34693 hPa Calm     74 % 0 mm 0.0 W/m2 CLR
22:22 -16.9 °C -19.2 °C 34693 hPa Calm     74 % 0 mm 0.0 W/m2 CLR
22:27 -16.9 °C -19.2 °C 34693 hPa Calm     74 % 0 mm 0.0 W/m2 CLR
22:32 -16.9 °C -19.2 °C 34693 hPa Calm     74 % 0 mm 0.0 W/m2 CLR
22:37 -16.9 °C -19.2 °C 34682.8 hPa Calm     74 % 0 mm 0.0 W/m2 CLR
22:42 -16.9 °C -19.2 °C 34682.8 hPa Calm     74 % 0 mm 0.0 W/m2 CLR
22:47 -16.9 °C -19.2 °C 34682.8 hPa Calm     74 % 0 mm 0.0 W/m2 CLR
22:52 -16.9 °C -19.1 °C 34682.8 hPa Calm     75 % 0 mm 0.0 W/m2 CLR
22:57 -16.9 °C -19.1 °C 34682.8 hPa Calm     75 % 0 mm 0.0 W/m2 CLR
23:02 -16.9 °C -19.1 °C 34682.8 hPa Calm     75 % 0 mm 0.0 W/m2 CLR
23:07 -16.9 °C -19.1 °C 34693 hPa Calm     75 % 0 mm 0.0 W/m2 CLR
23:12 -16.9 °C -19.1 °C 34693 hPa Calm     75 % 0 mm 0.0 W/m2 CLR
23:17 -16.9 °C -19.1 °C 34693 hPa Calm     75 % 0 mm 0.0 W/m2 CLR
23:22 -16.9 °C -19.1 °C 34682.8 hPa Calm     75 % 0 mm 0.0 W/m2 CLR
23:27 -16.8 °C -19.1 °C 34682.8 hPa Calm     75 % 0 mm 0.0 W/m2 CLR
23:32 -16.8 °C -19.1 °C 34682.8 hPa Calm     75 % 0 mm 0.0 W/m2 CLR
23:37 -16.8 °C -19.1 °C 34682.8 hPa Calm     75 % 0 mm 0.0 W/m2 CLR
23:42 -16.8 °C -19.1 °C 34682.8 hPa Calm     75 % 0 mm 0.0 W/m2 CLR
23:47 -16.8 °C -18.9 °C 34682.8 hPa Calm     76 % 0 mm 0.0 W/m2 CLR
23:52 -16.8 °C -18.9 °C 34682.8 hPa Calm     76 % 0 mm 0.0 W/m2 CLR
23:57 -16.9 °C -18.9 °C 34682.8 hPa Calm     77 % 0 mm 0.0 W/m2 CLR
Lo Temps de Massalio
Compliments of Weather Underground - 1.25 mb